Flight Track Log - Related Links

Times and Time Zones

All times are in EDT time to prevent confusion due to time zone crossing. See the EJA829P flight status page for this flight to view local times or setup timezone preferences in your user account.

Time Position Orientation Groundspeed Altitude Reporting Facility
EDT Latitude Longitude Course Direction KTS MPH feet Rate Location/Type
Wed 08:41:18 AM 38.4544 -85.7606 290° West 235 270 5,100  Level Indianapolis Center
Wed 08:42:20 AM 38.5178 -85.8089 329° Northwest 257 296 8,400 3,000 Climbing Indianapolis Center
Wed 08:43:22 AM 38.5831 -85.8625 327° Northwest 273 314 11,300 2,829 Climbing Indianapolis Center
Wed 08:44:23 AM 38.6692 -85.9297 329° Northwest 297 342 14,200 2,634 Climbing Indianapolis Center
Wed 08:45:25 AM 38.7417 -85.9883 328° Northwest 306 352 16,700 2,226 Climbing Indianapolis Center
Wed 08:46:00 AM 38.8197 -86.1854 290° West  Level FlightAware Approximate
Wed 08:46:27 AM 38.7911 -86.0725 307° West 305 351 18,800  Level Indianapolis Center
Wed 08:47:28 AM 38.8247 -86.1781 292° West 315 362 20,900 1,951 Climbing Indianapolis Center
Wed 08:48:30 AM 38.8569 -86.2833 291° West 317 365 22,800 1,659 Climbing Indianapolis Center
Wed 08:49:31 AM 38.8914 -86.3975 291° West 323 372 24,300 1,415 Climbing Indianapolis Center
Wed 08:50:33 AM 38.9264 -86.5108 292° West 334 384 25,700 1,355 Climbing Indianapolis Center
Wed 08:51:35 AM 38.9594 -86.6200 291° West 341 392 27,100 1,463 Climbing Indianapolis Center
Wed 08:52:36 AM 39.0039 -86.7611 292° West 351 404 28,700 1,415 Climbing Indianapolis Center
Wed 08:53:38 AM 39.0381 -86.8797 290° West 354 407 30,000 1,210 Climbing Indianapolis Center
Wed 08:54:40 AM 39.0739 -86.9981 291° West 355 409 31,200 1,171 Climbing Indianapolis Center
Wed 08:55:41 AM 39.1100 -87.1183 291° West 359 413 32,400 878 Climbing Indianapolis Center
Wed 08:56:43 AM 39.1483 -87.2458 291° West 361 415 33,000 290 Climbing Indianapolis Center
Wed 08:57:45 AM 39.1864 -87.3750 291° West 375 432 33,000  Level Indianapolis Center
Wed 08:58:47 AM 39.2283 -87.5042 293° West 387 445 33,000  Level Indianapolis Center
Wed 08:59:49 AM 39.2744 -87.6322 295° West 392 451 33,000  Level Indianapolis Center
Wed 09:00:50 AM 39.3253 -87.7783 294° West 391 450 33,000  Level Indianapolis Center
Wed 09:01:52 AM 39.3703 -87.9067 294° West 391 450 33,000  Level Indianapolis Center
Wed 09:02:54 AM 39.4167 -88.0414 294° West 392 451 33,000  Level Indianapolis Center
Wed 09:03:54 AM 39.4600 -88.1669 294° West 393 452 33,000  Level Kansas City Center
Wed 09:04:56 AM 39.5050 -88.2958 294° West 393 452 33,000  Level Kansas City Center
Wed 09:05:57 AM 39.5481 -88.4244 294° West 390 449 33,000 98 Level Kansas City Center
Wed 09:06:59 AM 39.5931 -88.5489 295° West 385 443 33,200 339 Climbing Kansas City Center
Wed 09:08:01 AM 39.6333 -88.6689 294° West 383 441 33,700 390 Climbing Kansas City Center
Wed 09:09:02 AM 39.6850 -88.8186 294° West 379 436 34,000 146 Climbing Kansas City Center
Wed 09:10:04 AM 39.7286 -88.9481 294° West 387 445 34,000  Level Kansas City Center
Wed 09:11:06 AM 39.7706 -89.0750 293° West 385 443 34,000  Level Kansas City Center
Wed 09:12:07 AM 39.8136 -89.2011 294° West 383 441 34,000  Level Kansas City Center
Wed 09:13:09 AM 39.8544 -89.3256 293° West 377 434 34,000  Level Kansas City Center
Wed 09:14:11 AM 39.8956 -89.4508 293° West 376 433 34,000  Level Kansas City Center
Wed 09:15:13 AM 39.9367 -89.5750 293° West 375 432 34,000  Level Kansas City Center
Wed 09:16:14 AM 39.9781 -89.7008 293° West 375 432 34,000  Level Kansas City Center
Wed 09:17:03 AM 40.0197 -89.8269 293° West 376 433 34,000  Level Kansas City Center
Wed 09:18:05 AM 40.0603 -89.9528 293° West 376 433 34,000  Level Kansas City Center
Wed 09:19:07 AM 40.1008 -90.0794 293° West 376 433 34,000  Level Kansas City Center
Wed 09:20:09 AM 40.1419 -90.2058 293° West 376 433 34,000  Level Kansas City Center
Wed 09:21:10 AM 40.1828 -90.3333 293° West 378 435 34,000  Level Kansas City Center
Wed 09:22:12 AM 40.2231 -90.4578 293° West 374 430 34,000  Level Kansas City Center
Wed 09:23:14 AM 40.2636 -90.5856 293° West 375 432 34,000  Level Kansas City Center
Wed 09:24:16 AM 40.3022 -90.7089 292° West 370 426 34,000  Level Kansas City Center
Wed 09:25:18 AM 40.3425 -90.8353 293° West 372 428 34,000  Level Kansas City Center
Wed 09:26:20 AM 40.3897 -90.9856 292° West 371 427 34,000  Level Kansas City Center
Wed 09:27:21 AM 40.4281 -91.1111 292° West 371 427 34,000  Level Kansas City Center
Wed 09:28:23 AM 40.4675 -91.2372 292° West 372 428 34,000  Level Kansas City Center
Wed 09:29:25 AM 40.5042 -91.3589 292° West 373 429 34,000  Level Kansas City Center
Wed 09:30:27 AM 40.5431 -91.4842 292° West 374 430 34,000  Level Kansas City Center
Wed 09:31:29 AM 40.5897 -91.6353 292° West 374 430 34,000  Level Kansas City Center
Wed 09:32:31 AM 40.6283 -91.7614 292° West 375 432 34,000  Level Kansas City Center
Wed 09:33:17 AM 40.6617 -91.8661 293° West 381 438 34,000  Level Chicago Center
Wed 09:34:19 AM 40.6997 -91.9936 292° West 379 436 34,000  Level Chicago Center
Wed 09:35:21 AM 40.7386 -92.1214 292° West 380 437 34,000  Level Chicago Center
Wed 09:36:23 AM 40.7761 -92.2483 291° West 378 435 34,000  Level Chicago Center
Wed 09:37:25 AM 40.8217 -92.4022 291° West 380 437 34,000  Level Chicago Center
Wed 09:38:27 AM 40.8600 -92.5311 292° West 381 438 34,000  Level Chicago Center
Wed 09:39:29 AM 40.8981 -92.6597 291° West 380 437 34,000  Level Chicago Center
Wed 09:40:31 AM 40.9356 -92.7892 291° West 382 440 34,000  Level Chicago Center
Wed 09:41:33 AM 40.9733 -92.9183 291° West 382 440 34,000  Level Chicago Center
Wed 09:42:35 AM 41.0183 -93.0722 291° West 379 436 34,000  Level Chicago Center
Wed 09:43:19 AM 41.0406 -93.1519 290° West 381 438 34,000  Level Minneapolis Center
Wed 09:44:21 AM 41.0869 -93.3036 292° West 377 434 34,000  Level Minneapolis Center
Wed 09:45:23 AM 41.1231 -93.4350 290° West 381 438 34,000  Level Minneapolis Center
Wed 09:46:25 AM 41.1608 -93.5636 291° West 379 436 34,000  Level Minneapolis Center
Wed 09:47:27 AM 41.1978 -93.6936 291° West 379 436 34,000  Level Minneapolis Center
Wed 09:48:29 AM 41.2353 -93.8239 291° West 380 437 34,000  Level Minneapolis Center
Wed 09:49:30 AM 41.2781 -93.9808 290° West 380 437 34,000  Level Minneapolis Center
Wed 09:50:32 AM 41.3147 -94.1114 291° West 380 437 34,000  Level Minneapolis Center
Wed 09:51:34 AM 41.3508 -94.2397 291° West 379 436 34,000  Level Minneapolis Center
Wed 09:52:36 AM 41.3864 -94.3717 290° West 379 436 34,000  Level Minneapolis Center
Wed 09:53:38 AM 41.4189 -94.5036 288° West 377 434 34,000  Level Minneapolis Center
Wed 09:54:40 AM 41.4611 -94.6628 290° West 379 436 34,000  Level Minneapolis Center
Wed 09:55:54 AM 41.4983 -94.7956 291° West 382 440 34,000  Level Minneapolis Center
Wed 09:56:56 AM 41.5456 -94.9547 292° West 384 442 34,000  Level Minneapolis Center
Wed 09:57:58 AM 41.5808 -95.0872 290° West 381 438 34,000  Level Minneapolis Center
Wed 09:59:00 AM 41.6465 -95.3477 290° West  Level FlightAware Approximate
Wed 10:00:03 AM 41.6575 -95.3767 290° West 378 435 34,000  Level Minneapolis Center
Wed 10:01:05 AM 41.6917 -95.5092 289° West 379 436 34,000  Level Minneapolis Center
Wed 10:02:06 AM 41.7183 -95.6131 289° West 376 433 34,000  Level Minneapolis Center
Wed 10:03:08 AM 41.7592 -95.7708 289° West 375 432 34,000  Level Minneapolis Center
Wed 10:04:10 AM 41.7939 -95.9014 290° West 376 433 34,000  Level Minneapolis Center
Wed 10:05:12 AM 41.8272 -96.0328 289° West 377 434 34,000  Level Minneapolis Center
Wed 10:06:14 AM 41.8678 -96.1914 289° West 378 435 34,000  Level Minneapolis Center
Wed 10:07:28 AM 41.9061 -96.3467 288° West 369 425 34,000  Level Minneapolis Center
Wed 10:08:30 AM 41.9386 -96.4722 289° West 361 415 34,000  Level Minneapolis Center
Wed 10:09:32 AM 41.9697 -96.5961 289° West 355 409 34,000  Level Minneapolis Center
Wed 10:10:33 AM 42.0014 -96.7189 289° West 350 403 34,000  Level Minneapolis Center
Wed 10:11:35 AM 42.0311 -96.8400 288° West 345 397 34,000  Level Minneapolis Center
Wed 10:12:37 AM 42.0669 -96.9875 288° West 346 398 34,000  Level Minneapolis Center
Wed 10:13:39 AM 42.0969 -97.1086 288° West 345 397 34,000  Level Minneapolis Center
Wed 10:14:41 AM 42.1269 -97.2317 288° West 345 397 34,000  Level Minneapolis Center
Wed 10:15:43 AM 42.1572 -97.3547 288° West 346 398 34,000  Level Minneapolis Center
Wed 10:16:44 AM 42.1886 -97.4839 288° West 356 410 34,000  Level Minneapolis Center
Wed 10:17:58 AM 42.2200 -97.6142 288° West 365 420 34,000  Level Minneapolis Center
Wed 10:19:01 AM 42.2589 -97.7742 288° West 371 427 34,000  Level Minneapolis Center
Wed 10:20:02 AM 42.2953 -97.9333 287° West 375 432 34,000  Level Minneapolis Center
Wed 10:21:04 AM 42.3272 -98.0672 288° West 377 434 34,000  Level Minneapolis Center
Wed 10:22:06 AM 42.3594 -98.2042 288° West 381 438 34,000  Level Minneapolis Center
Wed 10:23:08 AM 42.3925 -98.3450 288° West 390 449 34,000  Level Minneapolis Center
Wed 10:24:10 AM 42.4242 -98.4853 287° West 391 450 34,000  Level Minneapolis Center
Wed 10:25:12 AM 42.4644 -98.6547 288° West 394 453 34,000  Level Minneapolis Center
Wed 10:26:14 AM 42.5106 -98.7886 295° West 394 453 34,000  Level Minneapolis Center
Wed 10:27:16 AM 42.5586 -98.9214 296° West 393 452 34,000  Level Minneapolis Center
Wed 10:28:18 AM 42.6078 -99.0556 297° West 396 456 34,000  Level Minneapolis Center
Wed 10:29:20 AM 42.6572 -99.1861 297° West 393 452 34,000  Level Minneapolis Center
Wed 10:30:21 AM 42.6969 -99.2947 296° West 397 457 34,000  Level Minneapolis Center
Wed 10:31:09 AM 42.7519 -99.4442 297° West 394 453 34,000  Level Denver Center
Wed 10:32:11 AM 42.8006 -99.5792 296° West 396 456 34,000  Level Denver Center
Wed 10:33:13 AM 42.8494 -99.7153 296° West 397 457 34,000  Level Denver Center
Wed 10:34:15 AM 42.8978 -99.8508 296° West 397 457 34,000  Level Denver Center
Wed 10:35:17 AM 42.9469 -99.9856 297° West 396 456 34,000  Level Denver Center
Wed 10:36:19 AM 42.9953 -100.1203 296° West 396 456 34,000  Level Denver Center
Wed 10:37:21 AM 43.0433 -100.2553 296° West 396 456 34,000  Level Denver Center
Wed 10:38:23 AM 43.1019 -100.4167 296° West 393 452 34,000  Level Denver Center
Wed 10:39:25 AM 43.1489 -100.5544 295° West 397 457 34,000  Level Denver Center
Wed 10:40:27 AM 43.1975 -100.6925 296° West 399 459 34,000  Level Denver Center
Wed 10:41:29 AM 43.2456 -100.8286 296° West 397 457 34,000  Level Denver Center
Wed 10:42:31 AM 43.2928 -100.9672 295° West 399 459 34,000  Level Denver Center
Wed 10:43:33 AM 43.3419 -101.1072 296° West 404 465 34,000  Level Denver Center
Wed 10:44:35 AM 43.3989 -101.2733 295° West 401 461 34,000  Level Denver Center
Wed 10:45:37 AM 43.4469 -101.4128 295° West 402 463 34,000 -677 Level Denver Center
Wed 10:46:39 AM 43.4642 -101.5642 279° West 407 468 32,600 -1,935 Descending Denver Center
Wed 10:47:41 AM 43.4753 -101.7150 276° West 396 456 30,000 -2,565 Descending Denver Center
Wed 10:48:43 AM 43.4867 -101.8653 276° West 393 452 27,300 -1,452 Descending Denver Center
Wed 10:49:45 AM 43.4978 -102.0161 276° West 398 458 27,000 -726 Descending Denver Center
Wed 10:50:47 AM 43.5583 -102.1575 301° West 397 457 25,800 -2,661 Descending Denver Center
Wed 10:51:49 AM 43.6222 -102.2883 304° West 373 429 21,500 -4,000 Descending Denver Center
Wed 10:52:29 AM 43.6594 -102.3589 306° West 348 400 19,000 -3,429 Descending Denver Center
Wed 10:52:59 AM 43.6847 -102.4131 303° West 342 394 17,500 -1,714 Descending Denver Center
Wed 10:53:53 AM 43.7331 -102.5133 304° West 344 396 16,600 -1,448 Descending Denver Center
Wed 10:54:55 AM 43.7831 -102.6114 305° West 335 386 14,700 -2,226 Descending Denver Center
Wed 10:55:57 AM 43.8364 -102.7219 304° West 320 368 12,000 -2,613 Descending Denver Center
Wed 10:56:59 AM 43.8772 -102.8103 303° West 306 352 9,300 -2,468 Descending Denver Center
Wed 10:58:01 AM 43.9103 -102.8981 298° West 290 334 6,900 -2,081 Descending Denver Center
Wed 10:59:03 AM 43.9475 -102.9839 301° West 226 260 5,000 -1,317 Descending Denver Center
Wed 11:00:04 AM 43.9911 -103.0189 330° Northwest 164 189 4,200 -793 Descending Denver Center
Wed 11:01:04 AM 44.0222 -103.0422 332° Northwest 103 119 3,400 -800 Descending Denver Center
Wed 11:03:00 AM 44.0333 -103.0500 270° West  Level FlightAware Approximate

Login

Don't have an account? Register now (free) for customized features, flight alerts, and more!